This is the latest recevied weather packets stored in our database for station/object K3JSE-4. If no packets are shown the sender has not sent any weather packets the latest 10 day(s).
| Time | Temp. | Humidity | Pressure | Rain* | Wind** | Luminosity | Snow |
|---|---|---|---|---|---|---|---|
| 1777491644 | 13.33° C | 70% | 1011.7 hPa | 0 mm | - | - | - |
| 1777491344 | 13.89° C | 68% | 1011.8 hPa | 0 mm | - | - | - |
| 1777491044 | 13.89° C | 68% | 1011.8 hPa | 0 mm | - | - | - |
| 1777490744 | 13.89° C | 69% | 1011.9 hPa | 0 mm | - | - | - |
| 1777490444 | 13.33° C | 74% | 1012.1 hPa | 0 mm | - | - | - |
| 1777490144 | 13.33° C | 72% | 1012.2 hPa | 0 mm | - | - | - |
| 1777489844 | 13.33° C | 73% | 1012.5 hPa | 0 mm | - | - | - |
| 1777489544 | 13.33° C | 73% | 1012.4 hPa | 0 mm | - | - | - |
| 1777489244 | 12.78° C | 77% | 1012.5 hPa | 0 mm | - | - | - |
| 1777488944 | 12.78° C | 78% | 1012.6 hPa | 0 mm | - | - | - |
| 1777488644 | 12.78° C | 83% | 1012.7 hPa | 0 mm | - | - | - |
| 1777488344 | 12.78° C | 84% | 1012.7 hPa | 0 mm | - | - | - |
| 1777488044 | 12.78° C | 84% | 1013 hPa | 0 mm | - | - | - |
| 1777487744 | 12.22° C | 83% | 1012.9 hPa | 0 mm | - | - | - |
| 1777487444 | 12.22° C | 81% | 1013 hPa | 0 mm | - | - | - |
| 1777487144 | 12.22° C | 86% | 1012.8 hPa | 0 mm | - | - | - |
| 1777486844 | 11.67° C | 84% | 1012.9 hPa | 0 mm | - | - | - |
| 1777486544 | 11.67° C | 83% | 1013 hPa | 0 mm | - | - | - |
| 1777486244 | 12.22° C | 83% | 1013.3 hPa | 0 mm | - | - | - |
| 1777485944 | 12.22° C | 80% | 1013.3 hPa | 0 mm | - | - | - |
| 1777485644 | 12.22° C | 78% | 1013.6 hPa | 0 mm | - | - | - |
| 1777485344 | 13.33° C | 73% | 1013.6 hPa | 0 mm | - | - | - |
| 1777485044 | 13.89° C | 63% | 1013.6 hPa | 0 mm | - | - | - |
| 1777484744 | 14.44° C | 60% | 1013.6 hPa | 0 mm | - | - | - |
| 1777484444 | 14.44° C | 57% | 1013.7 hPa | 0 mm | - | - | - |
* Rain latest hour (hover to see other rain measurements)
** Current wind speed in m/s (hover to see current wind gust speed)